Helena — SCGL — position and weather

sailwx.info

Track history (hours):
 
Tides and Currents Weather Stations Pressure Air Temp Water Temp Dewpoint Dewpoint Depression Visibility Wind Speed Wind Dir Waves Ship Positions

Helena

Last reported at 2014-Sep-30 13:25 UTC. Time now 2014-Oct-02 04:25 UTC.
Position N 57°38' E 017°59'.

Length 169 m; draft 6.3 m.

Type: Cargo ship. MMSI: 265145000.

Date/timePositionNaut miles runAvg speedWind from/ knotsBaromVisibWave heightAir tempDewpointWater temp
2014-Sep-30 13:25N 57°38' E 017°59'1716.4
2014-Sep-30 12:21N 57°23' E 017°44'1316.3
2014-Sep-30 11:33N 57°10' E 017°36'3416.4
2014-Sep-30 09:28N 56°39' E 017°13'1516.3
2014-Sep-30 08:33N 56°25' E 017°04'1716.3
2014-Sep-30 07:32N 56°09' E 016°54'1515.1
2014-Sep-30 06:31N 55°59' E 016°32'3516.1
2014-Sep-30 04:20N 55°43' E 015°37'1316.4
2014-Sep-30 03:33N 55°37' E 015°17'1716.5
2014-Sep-30 02:33N 55°28' E 014°52'1616.2
2014-Sep-30 01:33N 55°18' E 014°30'1616.4
2014-Sep-30 00:34N 55°04' E 014°13'1616.0
2014-Sep-29 23:34N 54°57' E 013°48'1716.5
2014-Sep-29 22:34N 54°52' E 013°21'1212.0
2014-Sep-29 21:34N 54°48' E 013°01'1515.3
2014-Sep-29 20:34N 54°41' E 012°38'1414.0
2014-Sep-29 19:33N 54°32' E 012°20'1515.4
2014-Sep-29 18:33N 54°23' E 011°58'1312.5
2014-Sep-29 17:33N 54°17' E 011°40'1313.4
2014-Sep-29 16:33N 54°10' E 011°20'9 9.2
2014-Sep-29 15:33N 54°04' E 011°07'9 9.3
2014-Sep-29 14:33N 53°59' E 010°55'7 1.7
2014-Sep-29 10:29N 53°54' E 010°47'0 0.0
2014-Sep-29 09:26N 53°54' E 010°47'0 0.0
2014-Sep-29 06:26N 53°54' E 010°47'0 0.0
2014-Sep-29 05:32N 53°54' E 010°47'14 0.6
2014-Sep-28 07:05N 54°04' E 011°03'714.2
2014-Sep-28 06:33N 54°08' E 011°13'1414.1
2014-Sep-28 05:33N 54°16' E 011°33'1414.0
2014-Sep-28 04:33N 54°23' E 011°54'1313.0
2014-Sep-28 03:33N 54°31' E 012°12'1413.6
2014-Sep-28 02:33N 54°41' E 012°27'1413.9
2014-Sep-28 01:33N 54°48' E 012°47'1414.2
2014-Sep-28 00:33N 54°53' E 013°11'1414.1
2014-Sep-27 23:33N 54°58' E 013°34'1413.7
2014-Sep-27 22:32N 55°03' E 013°57'1212.6
2014-Sep-27 21:33N 55°11' E 014°13'1413.8
2014-Sep-27 20:33N 55°22' E 014°27'1414.2
2014-Sep-27 19:33N 55°31' E 014°47'1414.0
2014-Sep-27 18:34N 55°38' E 015°08'1413.9
2014-Sep-27 17:33N 55°45' E 015°29'1614.1
2014-Sep-27 16:24N 55°52' E 015°55'1213.9
2014-Sep-27 15:33N 55°58' E 016°14'5714.1
2014-Sep-27 11:32N 56°48' E 017°03'1515.6
2014-Sep-27 10:34N 57°02' E 017°11'1515.1
2014-Sep-27 09:34N 57°16' E 017°22'1514.7
2014-Sep-27 08:33N 57°29' E 017°36'  
2014-Sep-23 12:34N 57°15' E 017°40'11713.8
2014-Sep-23 04:04N 55°41' E 015°33'815.4
2014-Sep-23 03:33N 55°37' E 015°21'1515.2
2014-Sep-23 02:33N 55°30' E 014°58'1515.2
2014-Sep-23 01:33N 55°22' E 014°35'1514.9
2014-Sep-23 00:33N 55°10' E 014°19'1514.7
2014-Sep-22 23:33N 55°00' E 013°60'1515.5
2014-Sep-22 22:33N 54°55' E 013°34'1515.3
2014-Sep-22 21:33N 54°50' E 013°09'1514.7
2014-Sep-22 20:33N 54°44' E 012°46'1414.3
2014-Sep-22 19:33N 54°35' E 012°26'1515.1
2014-Sep-22 18:33N 54°24' E 012°09'1515.4
2014-Sep-22 17:33N 54°18' E 011°44'1515.3
2014-Sep-22 16:33N 54°10' E 011°22'9 0.3
2014-Sep-21 11:24N 54°06' E 011°08'1011.9
2014-Sep-21 10:33N 54°12' E 011°22'1313.0
2014-Sep-21 09:33N 54°20' E 011°40'1212.2
2014-Sep-21 08:33N 54°25' E 011°59'1010.4
2014-Sep-21 07:33N 54°32' E 012°13'1211.4
2014-Sep-21 06:33N 54°41' E 012°26'1212.2
2014-Sep-21 05:33N 54°48' E 012°43'1212.4
2014-Sep-21 04:33N 54°52' E 013°04'1312.7
2014-Sep-21 03:33N 54°56' E 013°25'1312.7
2014-Sep-21 02:33N 54°60' E 013°46'1312.7
2014-Sep-21 01:33N 55°05' E 014°06'1313.2
2014-Sep-21 00:33N 55°15' E 014°20'1313.2
2014-Sep-20 23:33N 55°26' E 014°35'1313.1
2014-Sep-20 22:32N 55°33' E 014°55'2512.8
2014-Sep-20 20:33N 55°46' E 015°33'1312.9
2014-Sep-20 19:33N 55°53' E 015°53'1312.6
2014-Sep-20 18:33N 55°58' E 016°13'1313.0
2014-Sep-20 17:33N 56°05' E 016°33'1212.1
2014-Sep-20 16:33N 56°14' E 016°47'1413.0
2014-Sep-20 15:27N 56°28' E 016°54'1112.8
2014-Sep-20 14:33N 56°39' E 016°60'1413.9
2014-Sep-20 13:33N 56°52' E 017°07'  
Track history (hours):
 
Tides and Currents Weather Stations Pressure Air Temp Water Temp Dewpoint Dewpoint Depression Visibility Wind Speed Wind Dir Waves Ship Positions

Helena

Last reported at 2014-Sep-30 13:25 UTC. Time now 2014-Oct-02 04:25 UTC.
Position N 57°38' E 017°59'.

Length 169 m; draft 6.3 m.

Type: Cargo ship. MMSI: 265145000.

Date/timePositionNaut miles runAvg speedWind from/ knotsBaromVisibWave heightAir tempDewpointWater temp
2014-Sep-30 13:25N 57°38' E 017°59'1716.4
2014-Sep-30 12:21N 57°23' E 017°44'1316.3
2014-Sep-30 11:33N 57°10' E 017°36'3416.4
2014-Sep-30 09:28N 56°39' E 017°13'1516.3
2014-Sep-30 08:33N 56°25' E 017°04'1716.3
2014-Sep-30 07:32N 56°09' E 016°54'1515.1
2014-Sep-30 06:31N 55°59' E 016°32'3516.1
2014-Sep-30 04:20N 55°43' E 015°37'1316.4
2014-Sep-30 03:33N 55°37' E 015°17'1716.5
2014-Sep-30 02:33N 55°28' E 014°52'1616.2
2014-Sep-30 01:33N 55°18' E 014°30'1616.4
2014-Sep-30 00:34N 55°04' E 014°13'1616.0
2014-Sep-29 23:34N 54°57' E 013°48'1716.5
2014-Sep-29 22:34N 54°52' E 013°21'1212.0
2014-Sep-29 21:34N 54°48' E 013°01'1515.3
2014-Sep-29 20:34N 54°41' E 012°38'1414.0
2014-Sep-29 19:33N 54°32' E 012°20'1515.4
2014-Sep-29 18:33N 54°23' E 011°58'1312.5
2014-Sep-29 17:33N 54°17' E 011°40'1313.4
2014-Sep-29 16:33N 54°10' E 011°20'9 9.2
2014-Sep-29 15:33N 54°04' E 011°07'9 9.3
2014-Sep-29 14:33N 53°59' E 010°55'7 1.7
2014-Sep-29 10:29N 53°54' E 010°47'0 0.0
2014-Sep-29 09:26N 53°54' E 010°47'0 0.0
2014-Sep-29 06:26N 53°54' E 010°47'0 0.0
2014-Sep-29 05:32N 53°54' E 010°47'14 0.6
2014-Sep-28 07:05N 54°04' E 011°03'714.2
2014-Sep-28 06:33N 54°08' E 011°13'1414.1
2014-Sep-28 05:33N 54°16' E 011°33'1414.0
2014-Sep-28 04:33N 54°23' E 011°54'1313.0
2014-Sep-28 03:33N 54°31' E 012°12'1413.6
2014-Sep-28 02:33N 54°41' E 012°27'1413.9
2014-Sep-28 01:33N 54°48' E 012°47'1414.2
2014-Sep-28 00:33N 54°53' E 013°11'1414.1
2014-Sep-27 23:33N 54°58' E 013°34'1413.7
2014-Sep-27 22:32N 55°03' E 013°57'1212.6
2014-Sep-27 21:33N 55°11' E 014°13'1413.8
2014-Sep-27 20:33N 55°22' E 014°27'1414.2
2014-Sep-27 19:33N 55°31' E 014°47'1414.0
2014-Sep-27 18:34N 55°38' E 015°08'1413.9
2014-Sep-27 17:33N 55°45' E 015°29'1614.1
2014-Sep-27 16:24N 55°52' E 015°55'1213.9
2014-Sep-27 15:33N 55°58' E 016°14'5714.1
2014-Sep-27 11:32N 56°48' E 017°03'1515.6
2014-Sep-27 10:34N 57°02' E 017°11'1515.1
2014-Sep-27 09:34N 57°16' E 017°22'1514.7
2014-Sep-27 08:33N 57°29' E 017°36'  
2014-Sep-23 12:34N 57°15' E 017°40'11713.8
2014-Sep-23 04:04N 55°41' E 015°33'815.4
2014-Sep-23 03:33N 55°37' E 015°21'1515.2
2014-Sep-23 02:33N 55°30' E 014°58'1515.2
2014-Sep-23 01:33N 55°22' E 014°35'1514.9
2014-Sep-23 00:33N 55°10' E 014°19'1514.7
2014-Sep-22 23:33N 55°00' E 013°60'1515.5
2014-Sep-22 22:33N 54°55' E 013°34'1515.3
2014-Sep-22 21:33N 54°50' E 013°09'1514.7
2014-Sep-22 20:33N 54°44' E 012°46'1414.3
2014-Sep-22 19:33N 54°35' E 012°26'1515.1
2014-Sep-22 18:33N 54°24' E 012°09'1515.4
2014-Sep-22 17:33N 54°18' E 011°44'1515.3
2014-Sep-22 16:33N 54°10' E 011°22'9 0.3
2014-Sep-21 11:24N 54°06' E 011°08'1011.9
2014-Sep-21 10:33N 54°12' E 011°22'1313.0
2014-Sep-21 09:33N 54°20' E 011°40'1212.2
2014-Sep-21 08:33N 54°25' E 011°59'1010.4
2014-Sep-21 07:33N 54°32' E 012°13'1211.4
2014-Sep-21 06:33N 54°41' E 012°26'1212.2
2014-Sep-21 05:33N 54°48' E 012°43'1212.4
2014-Sep-21 04:33N 54°52' E 013°04'1312.7
2014-Sep-21 03:33N 54°56' E 013°25'1312.7
2014-Sep-21 02:33N 54°60' E 013°46'1312.7
2014-Sep-21 01:33N 55°05' E 014°06'1313.2
2014-Sep-21 00:33N 55°15' E 014°20'1313.2
2014-Sep-20 23:33N 55°26' E 014°35'1313.1
2014-Sep-20 22:32N 55°33' E 014°55'2512.8
2014-Sep-20 20:33N 55°46' E 015°33'1312.9
2014-Sep-20 19:33N 55°53' E 015°53'1312.6
2014-Sep-20 18:33N 55°58' E 016°13'1313.0
2014-Sep-20 17:33N 56°05' E 016°33'1212.1
2014-Sep-20 16:33N 56°14' E 016°47'1413.0
2014-Sep-20 15:27N 56°28' E 016°54'1112.8
2014-Sep-20 14:33N 56°39' E 016°60'1413.9
2014-Sep-20 13:33N 56°52' E 017°07'  

Dump ship's entire track history